sensor_id;sensor_type;location;lat;lon;timestamp;temperature;humidity
8422;DHT22;4248;48.196;10.924;2022-11-20T00:01:22;6.30;69.20
8422;DHT22;4248;48.196;10.924;2022-11-20T00:03:48;6.40;68.00
8422;DHT22;4248;48.196;10.924;2022-11-20T00:06:16;6.30;69.00
8422;DHT22;4248;48.196;10.924;2022-11-20T00:08:42;6.30;69.10
8422;DHT22;4248;48.196;10.924;2022-11-20T00:11:19;6.30;69.10
8422;DHT22;4248;48.196;10.924;2022-11-20T00:13:45;6.30;68.20
8422;DHT22;4248;48.196;10.924;2022-11-20T00:16:13;6.30;69.30
8422;DHT22;4248;48.196;10.924;2022-11-20T00:18:38;6.30;69.30
8422;DHT22;4248;48.196;10.924;2022-11-20T00:21:07;6.30;69.30
8422;DHT22;4248;48.196;10.924;2022-11-20T00:23:34;6.30;68.20
8422;DHT22;4248;48.196;10.924;2022-11-20T00:26:04;6.30;69.20
8422;DHT22;4248;48.196;10.924;2022-11-20T00:28:30;6.30;70.50
8422;DHT22;4248;48.196;10.924;2022-11-20T00:31:07;6.20;69.40
8422;DHT22;4248;48.196;10.924;2022-11-20T00:33:33;6.20;68.60
8422;DHT22;4248;48.196;10.924;2022-11-20T00:36:03;6.20;69.70
8422;DHT22;4248;48.196;10.924;2022-11-20T00:38:29;6.20;69.50
8422;DHT22;4248;48.196;10.924;2022-11-20T00:40:57;6.20;69.40
8422;DHT22;4248;48.196;10.924;2022-11-20T00:43:22;6.20;69.30
8422;DHT22;4248;48.196;10.924;2022-11-20T00:45:48;6.30;69.30
8422;DHT22;4248;48.196;10.924;2022-11-20T00:48:14;6.30;69.20
8422;DHT22;4248;48.196;10.924;2022-11-20T00:50:41;6.30;69.20
8422;DHT22;4248;48.196;10.924;2022-11-20T00:53:06;6.30;68.20
8422;DHT22;4248;48.196;10.924;2022-11-20T00:55:32;6.30;69.20
8422;DHT22;4248;48.196;10.924;2022-11-20T00:57:58;6.30;69.00
8422;DHT22;4248;48.196;10.924;2022-11-20T01:00:23;6.30;69.00
8422;DHT22;4248;48.196;10.924;2022-11-20T01:02:49;6.30;69.00
8422;DHT22;4248;48.196;10.924;2022-11-20T01:05:14;6.30;67.80
8422;DHT22;4248;48.196;10.924;2022-11-20T01:07:40;6.30;69.00
8422;DHT22;4248;48.196;10.924;2022-11-20T01:10:06;6.30;69.30
8422;DHT22;4248;48.196;10.924;2022-11-20T01:12:32;6.30;69.30
8422;DHT22;4248;48.196;10.924;2022-11-20T01:14:57;6.20;68.30
8422;DHT22;4248;48.196;10.924;2022-11-20T01:17:23;6.20;69.60
8422;DHT22;4248;48.196;10.924;2022-11-20T01:19:49;6.10;69.70
8422;DHT22;4248;48.196;10.924;2022-11-20T01:22:16;6.10;69.90
8422;DHT22;4248;48.196;10.924;2022-11-20T01:24:41;6.10;69.00
8422;DHT22;4248;48.196;10.924;2022-11-20T01:27:07;6.00;70.00
8422;DHT22;4248;48.196;10.924;2022-11-20T01:29:32;5.90;70.60
8422;DHT22;4248;48.196;10.924;2022-11-20T01:31:58;5.90;70.70
8422;DHT22;4248;48.196;10.924;2022-11-20T01:34:24;5.80;70.80
8422;DHT22;4248;48.196;10.924;2022-11-20T01:36:50;5.70;71.00
8422;DHT22;4248;48.196;10.924;2022-11-20T01:39:22;5.60;71.10
8422;DHT22;4248;48.196;10.924;2022-11-20T01:41:49;5.50;71.30
8422;DHT22;4248;48.196;10.924;2022-11-20T01:44:47;5.40;70.50
8422;DHT22;4248;48.196;10.924;2022-11-20T01:47:18;5.40;71.60
8422;DHT22;4248;48.196;10.924;2022-11-20T01:49:50;5.30;71.70
8422;DHT22;4248;48.196;10.924;2022-11-20T01:52:21;5.20;71.90
8422;DHT22;4248;48.196;10.924;2022-11-20T01:55:09;5.20;72.10
8422;DHT22;4248;48.196;10.924;2022-11-20T01:57:38;5.10;72.10
8422;DHT22;4248;48.196;10.924;2022-11-20T02:00:09;5.20;72.10
8422;DHT22;4248;48.196;10.924;2022-11-20T02:02:36;5.10;71.80
8422;DHT22;4248;48.196;10.924;2022-11-20T02:05:12;5.10;70.60
8422;DHT22;4248;48.196;10.924;2022-11-20T02:07:39;5.20;71.60
8422;DHT22;4248;48.196;10.924;2022-11-20T02:10:05;5.20;71.40
8422;DHT22;4248;48.196;10.924;2022-11-20T02:12:31;5.20;71.40
8422;DHT22;4248;48.196;10.924;2022-11-20T02:15:16;5.20;70.10
8422;DHT22;4248;48.196;10.924;2022-11-20T02:17:41;5.30;70.90
8422;DHT22;4248;48.196;10.924;2022-11-20T02:20:07;5.40;70.60
8422;DHT22;4248;48.196;10.924;2022-11-20T02:25:19;5.60;68.80
8422;DHT22;4248;48.196;10.924;2022-11-20T02:27:45;5.60;69.60
8422;DHT22;4248;48.196;10.924;2022-11-20T02:30:11;5.70;69.60
8422;DHT22;4248;48.196;10.924;2022-11-20T02:32:38;5.70;69.50
8422;DHT22;4248;48.196;10.924;2022-11-20T02:37:53;5.80;69.40
8422;DHT22;4248;48.196;10.924;2022-11-20T02:40:19;5.80;69.20
8422;DHT22;4248;48.196;10.924;2022-11-20T02:42:45;5.90;69.20
8422;DHT22;4248;48.196;10.924;2022-11-20T02:45:11;6.00;67.90
8422;DHT22;4248;48.196;10.924;2022-11-20T02:47:37;6.00;68.90
8422;DHT22;4248;48.196;10.924;2022-11-20T02:50:04;6.00;68.80
8422;DHT22;4248;48.196;10.924;2022-11-20T02:52:30;6.00;68.80
8422;DHT22;4248;48.196;10.924;2022-11-20T02:54:55;6.00;67.80
8422;DHT22;4248;48.196;10.924;2022-11-20T02:57:21;6.00;68.90
8422;DHT22;4248;48.196;10.924;2022-11-20T02:59:47;6.00;68.90
8422;DHT22;4248;48.196;10.924;2022-11-20T03:02:12;6.10;69.10
8422;DHT22;4248;48.196;10.924;2022-11-20T03:04:38;6.10;69.00
8422;DHT22;4248;48.196;10.924;2022-11-20T03:07:04;6.10;68.90
8422;DHT22;4248;48.196;10.924;2022-11-20T03:09:30;6.10;68.80
8422;DHT22;4248;48.196;10.924;2022-11-20T03:11:55;6.20;68.80
8422;DHT22;4248;48.196;10.924;2022-11-20T03:14:21;6.20;68.70
8422;DHT22;4248;48.196;10.924;2022-11-20T03:16:47;6.20;68.80
8422;DHT22;4248;48.196;10.924;2022-11-20T03:19:13;6.20;68.60
8422;DHT22;4248;48.196;10.924;2022-11-20T03:21:39;6.20;68.60
8422;DHT22;4248;48.196;10.924;2022-11-20T03:24:05;6.20;67.60
8422;DHT22;4248;48.196;10.924;2022-11-20T03:26:31;6.20;68.60
8422;DHT22;4248;48.196;10.924;2022-11-20T03:28:59;6.20;68.50
8422;DHT22;4248;48.196;10.924;2022-11-20T03:31:30;6.20;68.60
8422;DHT22;4248;48.196;10.924;2022-11-20T03:33:57;6.30;67.50
8422;DHT22;4248;48.196;10.924;2022-11-20T03:36:23;6.30;68.60
8422;DHT22;4248;48.196;10.924;2022-11-20T03:38:49;6.30;68.60
8422;DHT22;4248;48.196;10.924;2022-11-20T03:41:20;6.30;68.50
8422;DHT22;4248;48.196;10.924;2022-11-20T03:43:50;6.30;67.40
8422;DHT22;4248;48.196;10.924;2022-11-20T03:46:16;6.30;68.50
8422;DHT22;4248;48.196;10.924;2022-11-20T03:48:42;6.30;67.40
8422;DHT22;4248;48.196;10.924;2022-11-20T03:51:16;6.30;68.50
8422;DHT22;4248;48.196;10.924;2022-11-20T03:53:43;6.20;67.60
8422;DHT22;4248;48.196;10.924;2022-11-20T03:56:10;6.20;68.60
8422;DHT22;4248;48.196;10.924;2022-11-20T03:58:38;6.20;68.60
8422;DHT22;4248;48.196;10.924;2022-11-20T04:01:12;6.20;68.70
8422;DHT22;4248;48.196;10.924;2022-11-20T04:03:39;6.20;67.90
8422;DHT22;4248;48.196;10.924;2022-11-20T04:08:39;6.20;68.80
8422;DHT22;4248;48.196;10.924;2022-11-20T04:11:16;6.20;68.90
8422;DHT22;4248;48.196;10.924;2022-11-20T04:13:46;6.20;67.90
8422;DHT22;4248;48.196;10.924;2022-11-20T04:16:12;6.10;68.90
8422;DHT22;4248;48.196;10.924;2022-11-20T04:18:38;6.10;68.00
8422;DHT22;4248;48.196;10.924;2022-11-20T04:21:04;6.20;69.00
8422;DHT22;4248;48.196;10.924;2022-11-20T04:23:30;6.20;68.90
8422;DHT22;4248;48.196;10.924;2022-11-20T04:26:01;6.10;69.00
8422;DHT22;4248;48.196;10.924;2022-11-20T04:28:27;6.10;68.90
8422;DHT22;4248;48.196;10.924;2022-11-20T04:30:53;6.20;68.90
8422;DHT22;4248;48.196;10.924;2022-11-20T04:33:18;6.10;68.80
8422;DHT22;4248;48.196;10.924;2022-11-20T04:35:46;6.20;69.00
8422;DHT22;4248;48.196;10.924;2022-11-20T04:38:13;6.20;68.90
8422;DHT22;4248;48.196;10.924;2022-11-20T04:40:38;6.20;68.80
8422;DHT22;4248;48.196;10.924;2022-11-20T04:43:04;6.20;67.60
8422;DHT22;4248;48.196;10.924;2022-11-20T04:45:29;6.20;68.70
8422;DHT22;4248;48.196;10.924;2022-11-20T04:47:55;6.20;68.70
8422;DHT22;4248;48.196;10.924;2022-11-20T04:50:20;6.20;68.70
8422;DHT22;4248;48.196;10.924;2022-11-20T04:52:46;6.20;68.60
8422;DHT22;4248;48.196;10.924;2022-11-20T04:55:12;6.20;67.40
8422;DHT22;4248;48.196;10.924;2022-11-20T04:57:37;6.20;68.70
8422;DHT22;4248;48.196;10.924;2022-11-20T05:00:03;6.10;68.60
8422;DHT22;4248;48.196;10.924;2022-11-20T05:02:30;6.10;68.80
8422;DHT22;4248;48.196;10.924;2022-11-20T05:04:56;6.00;67.80
8422;DHT22;4248;48.196;10.924;2022-11-20T05:07:22;6.00;69.10
8422;DHT22;4248;48.196;10.924;2022-11-20T05:09:47;5.90;69.30
8422;DHT22;4248;48.196;10.924;2022-11-20T05:12:13;5.70;69.50
8422;DHT22;4248;48.196;10.924;2022-11-20T05:14:38;5.60;69.00
8422;DHT22;4248;48.196;10.924;2022-11-20T05:17:04;5.50;70.20
8422;DHT22;4248;48.196;10.924;2022-11-20T05:19:30;5.40;70.50
8422;DHT22;4248;48.196;10.924;2022-11-20T05:21:55;5.30;70.90
8422;DHT22;4248;48.196;10.924;2022-11-20T05:24:21;5.10;70.10
8422;DHT22;4248;48.196;10.924;2022-11-20T05:26:47;5.00;71.20
8422;DHT22;4248;48.196;10.924;2022-11-20T05:29:13;5.00;71.30
8422;DHT22;4248;48.196;10.924;2022-11-20T05:31:39;5.00;71.20
8422;DHT22;4248;48.196;10.924;2022-11-20T05:34:05;5.20;71.00
8422;DHT22;4248;48.196;10.924;2022-11-20T05:36:31;5.30;70.50
8422;DHT22;4248;48.196;10.924;2022-11-20T05:38:57;5.50;69.90
8422;DHT22;4248;48.196;10.924;2022-11-20T05:41:23;5.60;68.40
8422;DHT22;4248;48.196;10.924;2022-11-20T05:43:49;5.50;68.50
8422;DHT22;4248;48.196;10.924;2022-11-20T05:46:19;5.50;69.70
8422;DHT22;4248;48.196;10.924;2022-11-20T05:48:46;5.40;69.80
8422;DHT22;4248;48.196;10.924;2022-11-20T05:51:14;5.30;69.90
8422;DHT22;4248;48.196;10.924;2022-11-20T05:53:40;5.30;70.10
8422;DHT22;4248;48.196;10.924;2022-11-20T05:56:09;5.20;70.30
8422;DHT22;4248;48.196;10.924;2022-11-20T05:58:36;5.20;70.10
8422;DHT22;4248;48.196;10.924;2022-11-20T06:01:09;5.30;70.00
8422;DHT22;4248;48.196;10.924;2022-11-20T06:03:35;5.40;68.50
8422;DHT22;4248;48.196;10.924;2022-11-20T06:06:02;5.50;68.20
8422;DHT22;4248;48.196;10.924;2022-11-20T06:08:29;5.50;69.20
8422;DHT22;4248;48.196;10.924;2022-11-20T06:10:55;5.60;68.80
8422;DHT22;4248;48.196;10.924;2022-11-20T06:13:20;5.80;67.50
8422;DHT22;4248;48.196;10.924;2022-11-20T06:15:50;5.80;68.50
8422;DHT22;4248;48.196;10.924;2022-11-20T06:18:16;5.80;68.50
8422;DHT22;4248;48.196;10.924;2022-11-20T06:20:41;5.80;68.40
8422;DHT22;4248;48.196;10.924;2022-11-20T06:23:07;5.90;67.40
8422;DHT22;4248;48.196;10.924;2022-11-20T06:25:33;5.90;68.40
8422;DHT22;4248;48.196;10.924;2022-11-20T06:27:58;5.90;68.40
8422;DHT22;4248;48.196;10.924;2022-11-20T06:30:24;5.90;68.40
8422;DHT22;4248;48.196;10.924;2022-11-20T06:32:49;5.90;68.30
8422;DHT22;4248;48.196;10.924;2022-11-20T06:35:15;5.90;67.20
8422;DHT22;4248;48.196;10.924;2022-11-20T06:37:40;6.00;68.30
8422;DHT22;4248;48.196;10.924;2022-11-20T06:40:07;6.00;68.20
8422;DHT22;4248;48.196;10.924;2022-11-20T06:42:32;6.00;68.10
8422;DHT22;4248;48.196;10.924;2022-11-20T06:44:58;6.10;67.00
8422;DHT22;4248;48.196;10.924;2022-11-20T06:47:23;6.10;68.10
8422;DHT22;4248;48.196;10.924;2022-11-20T06:49:49;6.10;67.90
8422;DHT22;4248;48.196;10.924;2022-11-20T06:52:15;6.10;68.10
8422;DHT22;4248;48.196;10.924;2022-11-20T06:54:40;6.10;67.00
8422;DHT22;4248;48.196;10.924;2022-11-20T06:57:06;6.10;68.00
8422;DHT22;4248;48.196;10.924;2022-11-20T06:59:31;6.20;67.90
8422;DHT22;4248;48.196;10.924;2022-11-20T07:01:57;6.20;67.70
8422;DHT22;4248;48.196;10.924;2022-11-20T07:04:22;6.30;66.60
8422;DHT22;4248;48.196;10.924;2022-11-20T07:06:48;6.30;67.70
8422;DHT22;4248;48.196;10.924;2022-11-20T07:09:14;6.30;67.70
8422;DHT22;4248;48.196;10.924;2022-11-20T07:11:39;6.30;67.70
8422;DHT22;4248;48.196;10.924;2022-11-20T07:14:05;6.30;67.60
8422;DHT22;4248;48.196;10.924;2022-11-20T07:16:30;6.30;66.50
8422;DHT22;4248;48.196;10.924;2022-11-20T07:18:56;6.40;67.60
8422;DHT22;4248;48.196;10.924;2022-11-20T07:21:22;6.40;67.60
8422;DHT22;4248;48.196;10.924;2022-11-20T07:23:47;6.50;66.50
8422;DHT22;4248;48.196;10.924;2022-11-20T07:26:13;6.50;67.50
8422;DHT22;4248;48.196;10.924;2022-11-20T07:28:38;6.50;67.50
8422;DHT22;4248;48.196;10.924;2022-11-20T07:31:04;6.50;67.60
8422;DHT22;4248;48.196;10.924;2022-11-20T07:33:32;6.50;67.70
8422;DHT22;4248;48.196;10.924;2022-11-20T07:36:01;6.50;67.70
8422;DHT22;4248;48.196;10.924;2022-11-20T07:38:27;6.60;67.60
8422;DHT22;4248;48.196;10.924;2022-11-20T07:40:57;6.70;67.30
8422;DHT22;4248;48.196;10.924;2022-11-20T07:43:23;6.90;65.70
8422;DHT22;4248;48.196;10.924;2022-11-20T07:45:49;6.90;66.70
8422;DHT22;4248;48.196;10.924;2022-11-20T07:48:15;7.00;66.60
8422;DHT22;4248;48.196;10.924;2022-11-20T07:50:41;7.10;65.30
8422;DHT22;4248;48.196;10.924;2022-11-20T07:53:07;7.10;65.20
8422;DHT22;4248;48.196;10.924;2022-11-20T07:55:33;7.10;66.10
8422;DHT22;4248;48.196;10.924;2022-11-20T07:57:58;7.20;66.30
8422;DHT22;4248;48.196;10.924;2022-11-20T08:00:25;7.20;66.10
8422;DHT22;4248;48.196;10.924;2022-11-20T08:02:51;7.20;66.20
8422;DHT22;4248;48.196;10.924;2022-11-20T08:05:17;7.30;65.00
8422;DHT22;4248;48.196;10.924;2022-11-20T08:07:43;7.30;66.20
8422;DHT22;4248;48.196;10.924;2022-11-20T08:10:11;7.30;66.00
8422;DHT22;4248;48.196;10.924;2022-11-20T08:12:44;7.30;65.90
8422;DHT22;4248;48.196;10.924;2022-11-20T08:15:28;7.30;64.90
8422;DHT22;4248;48.196;10.924;2022-11-20T08:18:06;7.30;65.90
8422;DHT22;4248;48.196;10.924;2022-11-20T08:20:33;7.40;67.10
8422;DHT22;4248;48.196;10.924;2022-11-20T08:23:00;7.50;65.80
8422;DHT22;4248;48.196;10.924;2022-11-20T08:25:27;7.50;64.30
8422;DHT22;4248;48.196;10.924;2022-11-20T08:27:53;7.60;65.30
8422;DHT22;4248;48.196;10.924;2022-11-20T08:30:19;7.70;65.00
8422;DHT22;4248;48.196;10.924;2022-11-20T08:32:44;7.80;64.70
8422;DHT22;4248;48.196;10.924;2022-11-20T08:35:10;7.90;64.30
8422;DHT22;4248;48.196;10.924;2022-11-20T08:37:36;7.90;64.30
8422;DHT22;4248;48.196;10.924;2022-11-20T08:40:04;7.90;64.40
8422;DHT22;4248;48.196;10.924;2022-11-20T08:42:30;7.80;64.40
8422;DHT22;4248;48.196;10.924;2022-11-20T08:44:55;7.80;63.30
8422;DHT22;4248;48.196;10.924;2022-11-20T08:47:21;7.90;64.60
8422;DHT22;4248;48.196;10.924;2022-11-20T08:49:46;7.90;64.60
8422;DHT22;4248;48.196;10.924;2022-11-20T08:52:12;7.90;64.50
8422;DHT22;4248;48.196;10.924;2022-11-20T08:54:37;7.90;64.30
8422;DHT22;4248;48.196;10.924;2022-11-20T08:57:03;8.00;64.30
8422;DHT22;4248;48.196;10.924;2022-11-20T08:59:28;7.90;64.10
8422;DHT22;4248;48.196;10.924;2022-11-20T09:01:55;8.00;64.00
8422;DHT22;4248;48.196;10.924;2022-11-20T09:04:20;8.00;64.10
8422;DHT22;4248;48.196;10.924;2022-11-20T09:06:46;8.00;63.80
8422;DHT22;4248;48.196;10.924;2022-11-20T09:09:16;8.20;63.90
8422;DHT22;4248;48.196;10.924;2022-11-20T09:11:42;8.40;64.00
8422;DHT22;4248;48.196;10.924;2022-11-20T09:14:07;8.60;62.50
8422;DHT22;4248;48.196;10.924;2022-11-20T09:16:33;8.80;62.30
8422;DHT22;4248;48.196;10.924;2022-11-20T09:18:58;9.00;61.80
8422;DHT22;4248;48.196;10.924;2022-11-20T09:21:24;9.00;61.40
8422;DHT22;4248;48.196;10.924;2022-11-20T09:23:50;9.00;61.50
8422;DHT22;4248;48.196;10.924;2022-11-20T09:26:15;9.00;61.30
8422;DHT22;4248;48.196;10.924;2022-11-20T09:28:41;9.00;61.20
8422;DHT22;4248;48.196;10.924;2022-11-20T09:31:08;9.10;61.10
8422;DHT22;4248;48.196;10.924;2022-11-20T09:33:37;9.20;60.90
8422;DHT22;4248;48.196;10.924;2022-11-20T09:36:03;9.30;60.90
8422;DHT22;4248;48.196;10.924;2022-11-20T09:38:29;9.30;60.50
8422;DHT22;4248;48.196;10.924;2022-11-20T09:41:05;9.30;60.50
8422;DHT22;4248;48.196;10.924;2022-11-20T09:43:57;9.30;60.30
8422;DHT22;4248;48.196;10.924;2022-11-20T09:46:29;9.20;60.20
8422;DHT22;4248;48.196;10.924;2022-11-20T09:54:25;9.10;60.40
8422;DHT22;4248;48.196;10.924;2022-11-20T09:57:03;8.90;60.70
8422;DHT22;4248;48.196;10.924;2022-11-20T09:59:52;8.80;60.80
8422;DHT22;4248;48.196;10.924;2022-11-20T10:02:35;8.60;60.50
8422;DHT22;4248;48.196;10.924;2022-11-20T10:05:09;8.60;60.30
8422;DHT22;4248;48.196;10.924;2022-11-20T10:19:02;8.50;58.60
8422;DHT22;4248;48.196;10.924;2022-11-20T10:29:34;8.60;57.70
8422;DHT22;4248;48.196;10.924;2022-11-20T10:32:04;8.80;57.50
8422;DHT22;4248;48.196;10.924;2022-11-20T10:37:22;9.20;56.70
8422;DHT22;4248;48.196;10.924;2022-11-20T10:43:18;9.20;56.70
8422;DHT22;4248;48.196;10.924;2022-11-20T10:45:57;9.30;56.60
8422;DHT22;4248;48.196;10.924;2022-11-20T10:48:27;9.20;56.50
8422;DHT22;4248;48.196;10.924;2022-11-20T10:51:02;9.20;57.00
8422;DHT22;4248;48.196;10.924;2022-11-20T10:56:50;8.90;57.20
8422;DHT22;4248;48.196;10.924;2022-11-20T11:04:47;8.90;57.00
8422;DHT22;4248;48.196;10.924;2022-11-20T11:07:35;8.90;56.70
8422;DHT22;4248;48.196;10.924;2022-11-20T11:10:13;8.80;56.80
8422;DHT22;4248;48.196;10.924;2022-11-20T11:12:43;8.80;56.90
8422;DHT22;4248;48.196;10.924;2022-11-20T11:15:14;8.70;57.10
8422;DHT22;4248;48.196;10.924;2022-11-20T11:17:46;8.50;57.20
8422;DHT22;4248;48.196;10.924;2022-11-20T11:20:18;8.40;57.40
8422;DHT22;4248;48.196;10.924;2022-11-20T11:22:50;8.30;57.50
8422;DHT22;4248;48.196;10.924;2022-11-20T11:25:36;8.20;57.50
8422;DHT22;4248;48.196;10.924;2022-11-20T11:28:20;8.30;57.40
8422;DHT22;4248;48.196;10.924;2022-11-20T11:30:46;8.30;57.40
8422;DHT22;4248;48.196;10.924;2022-11-20T11:33:22;8.50;56.10
8422;DHT22;4248;48.196;10.924;2022-11-20T11:35:57;8.50;57.10
8422;DHT22;4248;48.196;10.924;2022-11-20T11:38:40;8.50;56.80
8422;DHT22;4248;48.196;10.924;2022-11-20T11:41:13;8.60;56.70
8422;DHT22;4248;48.196;10.924;2022-11-20T11:43:56;8.70;56.70
8422;DHT22;4248;48.196;10.924;2022-11-20T11:46:51;8.70;56.40
8422;DHT22;4248;48.196;10.924;2022-11-20T11:49:19;8.60;56.30
8422;DHT22;4248;48.196;10.924;2022-11-20T11:52:12;8.60;56.60
8422;DHT22;4248;48.196;10.924;2022-11-20T11:57:36;8.60;56.70
8422;DHT22;4248;48.196;10.924;2022-11-20T12:05:19;8.50;56.70
8422;DHT22;4248;48.196;10.924;2022-11-20T12:08:02;8.40;56.90
8422;DHT22;4248;48.196;10.924;2022-11-20T12:10:43;8.40;56.80
8422;DHT22;4248;48.196;10.924;2022-11-20T12:13:36;8.50;55.70
8422;DHT22;4248;48.196;10.924;2022-11-20T12:16:05;8.50;56.60
8422;DHT22;4248;48.196;10.924;2022-11-20T12:18:34;8.50;56.60
8422;DHT22;4248;48.196;10.924;2022-11-20T12:23:53;8.70;56.60
8422;DHT22;4248;48.196;10.924;2022-11-20T12:39:49;8.50;57.00
8422;DHT22;4248;48.196;10.924;2022-11-20T12:48:03;8.40;57.50
8422;DHT22;4248;48.196;10.924;2022-11-20T13:02:23;8.40;57.90
8422;DHT22;4248;48.196;10.924;2022-11-20T13:07:43;8.30;58.30
8422;DHT22;4248;48.196;10.924;2022-11-20T13:18:11;8.00;58.90
8422;DHT22;4248;48.196;10.924;2022-11-20T13:20:44;8.10;58.90
8422;DHT22;4248;48.196;10.924;2022-11-20T13:23:11;8.20;58.80
8422;DHT22;4248;48.196;10.924;2022-11-20T13:25:38;8.20;59.80
8422;DHT22;4248;48.196;10.924;2022-11-20T13:30:47;8.10;59.30
8422;DHT22;4248;48.196;10.924;2022-11-20T13:33:34;8.20;59.10
8422;DHT22;4248;48.196;10.924;2022-11-20T13:36:06;8.20;58.80
8422;DHT22;4248;48.196;10.924;2022-11-20T13:38:44;8.20;58.90
8422;DHT22;4248;48.196;10.924;2022-11-20T13:41:11;8.20;59.00
8422;DHT22;4248;48.196;10.924;2022-11-20T13:46:42;8.10;59.20
8422;DHT22;4248;48.196;10.924;2022-11-20T13:51:50;8.20;59.20
8422;DHT22;4248;48.196;10.924;2022-11-20T13:54:48;8.30;57.80
8422;DHT22;4248;48.196;10.924;2022-11-20T14:02:33;8.30;58.80
8422;DHT22;4248;48.196;10.924;2022-11-20T14:04:59;8.30;57.90
8422;DHT22;4248;48.196;10.924;2022-11-20T14:07:39;8.20;59.20
8422;DHT22;4248;48.196;10.924;2022-11-20T14:10:18;8.10;59.20
8422;DHT22;4248;48.196;10.924;2022-11-20T14:12:44;8.00;59.40
8422;DHT22;4248;48.196;10.924;2022-11-20T14:15:24;8.00;58.40
8422;DHT22;4248;48.196;10.924;2022-11-20T14:17:50;7.90;59.40
8422;DHT22;4248;48.196;10.924;2022-11-20T14:20:16;7.90;59.40
8422;DHT22;4248;48.196;10.924;2022-11-20T14:22:50;7.90;59.60
8422;DHT22;4248;48.196;10.924;2022-11-20T14:27:47;7.90;59.60
8422;DHT22;4248;48.196;10.924;2022-11-20T14:30:17;7.80;59.60
8422;DHT22;4248;48.196;10.924;2022-11-20T14:32:44;7.70;59.70
8422;DHT22;4248;48.196;10.924;2022-11-20T14:35:18;7.70;58.80
8422;DHT22;4248;48.196;10.924;2022-11-20T14:37:45;7.60;59.90
8422;DHT22;4248;48.196;10.924;2022-11-20T14:40:33;7.60;59.90
8422;DHT22;4248;48.196;10.924;2022-11-20T14:43:18;7.50;60.10
8422;DHT22;4248;48.196;10.924;2022-11-20T14:45:46;7.40;59.40
8422;DHT22;4248;48.196;10.924;2022-11-20T14:48:14;7.30;60.20
8422;DHT22;4248;48.196;10.924;2022-11-20T14:50:40;7.20;60.60
8422;DHT22;4248;48.196;10.924;2022-11-20T14:53:05;7.10;60.90
8422;DHT22;4248;48.196;10.924;2022-11-20T14:55:33;7.10;60.20
8422;DHT22;4248;48.196;10.924;2022-11-20T14:58:21;7.00;61.90
8422;DHT22;4248;48.196;10.924;2022-11-20T15:00:56;6.80;62.80
8422;DHT22;4248;48.196;10.924;2022-11-20T15:03:22;6.40;64.10
8422;DHT22;4248;48.196;10.924;2022-11-20T15:05:50;6.40;65.20
8422;DHT22;4248;48.196;10.924;2022-11-20T15:08:16;6.30;65.50
8422;DHT22;4248;48.196;10.924;2022-11-20T15:10:51;6.30;65.50
8422;DHT22;4248;48.196;10.924;2022-11-20T15:13:25;6.40;64.40
8422;DHT22;4248;48.196;10.924;2022-11-20T15:15:54;6.40;65.50
8422;DHT22;4248;48.196;10.924;2022-11-20T15:18:29;6.40;65.80
8422;DHT22;4248;48.196;10.924;2022-11-20T15:20:58;6.30;66.10
8422;DHT22;4248;48.196;10.924;2022-11-20T15:23:26;6.30;65.20
8422;DHT22;4248;48.196;10.924;2022-11-20T15:25:52;6.30;66.30
8422;DHT22;4248;48.196;10.924;2022-11-20T15:28:21;6.40;66.10
8422;DHT22;4248;48.196;10.924;2022-11-20T15:30:49;6.40;65.80
8422;DHT22;4248;48.196;10.924;2022-11-20T15:33:15;6.40;64.50
8422;DHT22;4248;48.196;10.924;2022-11-20T15:35:41;6.40;65.50
8422;DHT22;4248;48.196;10.924;2022-11-20T15:38:07;6.40;65.20
8422;DHT22;4248;48.196;10.924;2022-11-20T15:40:33;6.50;65.00
8422;DHT22;4248;48.196;10.924;2022-11-20T15:42:58;6.50;64.60
8422;DHT22;4248;48.196;10.924;2022-11-20T15:45:45;6.60;63.30
8422;DHT22;4248;48.196;10.924;2022-11-20T15:48:20;6.70;64.00
8422;DHT22;4248;48.196;10.924;2022-11-20T15:53:28;6.70;63.60
8422;DHT22;4248;48.196;10.924;2022-11-20T15:55:54;6.70;63.50
8422;DHT22;4248;48.196;10.924;2022-11-20T15:58:20;6.70;63.50
8422;DHT22;4248;48.196;10.924;2022-11-20T16:00:48;6.70;63.50
8422;DHT22;4248;48.196;10.924;2022-11-20T16:03:17;6.70;62.70
8422;DHT22;4248;48.196;10.924;2022-11-20T16:05:43;6.70;63.80
8422;DHT22;4248;48.196;10.924;2022-11-20T16:08:09;6.60;64.00
8422;DHT22;4248;48.196;10.924;2022-11-20T16:10:35;6.50;64.30
8422;DHT22;4248;48.196;10.924;2022-11-20T16:13:01;6.30;64.60
8422;DHT22;4248;48.196;10.924;2022-11-20T16:15:51;6.10;65.10
8422;DHT22;4248;48.196;10.924;2022-11-20T16:18:20;5.90;65.60
8422;DHT22;4248;48.196;10.924;2022-11-20T16:20:48;5.70;66.10
8422;DHT22;4248;48.196;10.924;2022-11-20T16:23:15;5.60;66.40
8422;DHT22;4248;48.196;10.924;2022-11-20T16:25:42;5.40;66.70
8422;DHT22;4248;48.196;10.924;2022-11-20T16:28:07;5.30;67.10
8422;DHT22;4248;48.196;10.924;2022-11-20T16:30:33;5.10;67.40
8422;DHT22;4248;48.196;10.924;2022-11-20T16:33:00;5.00;67.70
8422;DHT22;4248;48.196;10.924;2022-11-20T16:35:27;4.90;68.10
8422;DHT22;4248;48.196;10.924;2022-11-20T16:37:53;4.80;68.30
8422;DHT22;4248;48.196;10.924;2022-11-20T16:40:19;4.70;68.50
8422;DHT22;4248;48.196;10.924;2022-11-20T16:42:45;4.60;68.60
8422;DHT22;4248;48.196;10.924;2022-11-20T16:45:10;4.40;68.70
8422;DHT22;4248;48.196;10.924;2022-11-20T16:47:36;4.40;68.80
8422;DHT22;4248;48.196;10.924;2022-11-20T16:50:03;4.30;68.60
8422;DHT22;4248;48.196;10.924;2022-11-20T16:52:30;4.20;68.70
8422;DHT22;4248;48.196;10.924;2022-11-20T16:54:56;4.10;68.50
8422;DHT22;4248;48.196;10.924;2022-11-20T16:57:22;4.10;68.70
8422;DHT22;4248;48.196;10.924;2022-11-20T16:59:48;4.00;68.50
8422;DHT22;4248;48.196;10.924;2022-11-20T17:02:14;4.00;68.40
8422;DHT22;4248;48.196;10.924;2022-11-20T17:04:39;4.00;68.20
8422;DHT22;4248;48.196;10.924;2022-11-20T17:07:06;4.00;68.00
8422;DHT22;4248;48.196;10.924;2022-11-20T17:09:32;4.00;67.80
8422;DHT22;4248;48.196;10.924;2022-11-20T17:11:57;4.00;67.70
8422;DHT22;4248;48.196;10.924;2022-11-20T17:14:23;4.00;66.70
8422;DHT22;4248;48.196;10.924;2022-11-20T17:16:49;4.00;67.70
8422;DHT22;4248;48.196;10.924;2022-11-20T17:19:14;4.00;67.50
8422;DHT22;4248;48.196;10.924;2022-11-20T17:21:40;4.10;67.30
8422;DHT22;4248;48.196;10.924;2022-11-20T17:24:10;4.50;65.50
8422;DHT22;4248;48.196;10.924;2022-11-20T17:26:38;4.50;66.20
8422;DHT22;4248;48.196;10.924;2022-11-20T17:31:32;4.70;65.60
8422;DHT22;4248;48.196;10.924;2022-11-20T17:33:59;4.80;65.40
8422;DHT22;4248;48.196;10.924;2022-11-20T17:36:26;4.90;65.40
8422;DHT22;4248;48.196;10.924;2022-11-20T17:38:52;4.90;66.40
8422;DHT22;4248;48.196;10.924;2022-11-20T17:41:20;4.90;65.20
8422;DHT22;4248;48.196;10.924;2022-11-20T17:43:47;4.90;64.20
8422;DHT22;4248;48.196;10.924;2022-11-20T17:46:18;4.90;65.20
8422;DHT22;4248;48.196;10.924;2022-11-20T17:48:44;4.90;65.20
8422;DHT22;4248;48.196;10.924;2022-11-20T17:51:15;4.90;65.30
8422;DHT22;4248;48.196;10.924;2022-11-20T17:53:43;4.90;65.70
8422;DHT22;4248;48.196;10.924;2022-11-20T17:56:09;4.80;65.60
8422;DHT22;4248;48.196;10.924;2022-11-20T17:58:54;4.80;65.80
8422;DHT22;4248;48.196;10.924;2022-11-20T18:01:20;4.80;65.80
8422;DHT22;4248;48.196;10.924;2022-11-20T18:03:46;4.80;65.20
8422;DHT22;4248;48.196;10.924;2022-11-20T18:06:16;4.70;66.30
8422;DHT22;4248;48.196;10.924;2022-11-20T18:08:42;4.70;66.50
8422;DHT22;4248;48.196;10.924;2022-11-20T18:11:12;4.60;66.80
8422;DHT22;4248;48.196;10.924;2022-11-20T18:13:39;4.50;67.00